Time;durP1;ratioP1;P1;durP2;ratioP2;P2;SDS_P1;SDS_P2;PMS_P1;PMS_P2;Temp;Humidity;BMP_temperature;BMP_pressure;BME280_temperature;BME280_humidity;BME280_pressure;Samples;Min_cycle;Max_cycle;Signal;HPM_P1;HPM_P2
2023/09/16 00:04:46;;;;;;;2.70;1.25;;;;;;;20.64;73.08;101248.31;19440140;30;20542;-63
2023/09/16 00:14:48;;;;;;;1.52;1.30;;;;;;;20.65;72.83;101250.84;19442620;30;20512;-63
2023/09/16 00:24:50;;;;;;;1.90;1.70;;;;;;;20.61;72.89;101244.03;19440654;30;20054;-63
2023/09/16 00:34:53;;;;;;;1.95;1.58;;;;;;;20.62;72.85;101237.63;19452510;30;20068;-63
2023/09/16 00:44:55;;;;;;;1.63;1.40;;;;;;;20.61;72.71;101221.56;19451806;30;20061;-63
2023/09/16 00:54:56;;;;;;;3.20;1.40;;;;;;;20.60;72.63;101214.44;19453835;30;20072;-63
2023/09/16 01:04:59;;;;;;;1.40;1.20;;;;;;;20.58;72.51;101217.28;19449732;30;20061;-63
2023/09/16 01:15:01;;;;;;;1.65;1.15;;;;;;;20.57;72.36;101216.44;19460588;30;20064;-63
2023/09/16 01:25:06;;;;;;;1.50;1.10;;;;;;;20.55;72.33;101207.63;19444982;30;20065;-63
2023/09/16 01:35:10;;;;;;;1.67;1.13;;;;;;;20.55;72.42;101210.31;19448570;30;20062;-63
2023/09/16 01:45:12;;;;;;;1.67;1.25;;;;;;;20.54;72.41;101208.59;19447830;30;20190;-63
2023/09/16 01:55:14;;;;;;;1.38;1.27;;;;;;;20.53;72.38;101198.78;19451641;30;20069;-63
2023/09/16 02:05:16;;;;;;;1.42;1.27;;;;;;;20.53;72.23;101195.22;19450439;30;20061;-63
2023/09/16 02:15:18;;;;;;;1.60;1.30;;;;;;;20.52;72.30;101188.13;19451032;30;20491;-63
2023/09/16 02:25:21;;;;;;;1.70;1.23;;;;;;;20.52;72.15;101185.41;19444099;30;20123;-63
2023/09/16 02:35:24;;;;;;;1.67;1.30;;;;;;;20.50;71.86;101193.66;19447484;30;20069;-63
2023/09/16 02:45:27;;;;;;;1.20;1.20;;;;;;;20.49;71.83;101196.53;19449294;30;20155;-63
2023/09/16 02:55:31;;;;;;;1.40;1.13;;;;;;;20.47;71.80;101193.94;19397226;30;20058;-63
2023/09/16 03:05:33;;;;;;;1.40;1.00;;;;;;;20.46;71.72;101186.00;19432677;30;20089;-63
2023/09/16 03:15:36;;;;;;;1.00;0.90;;;;;;;20.42;71.29;101180.88;19444493;30;20075;-63
2023/09/16 03:25:38;;;;;;;1.17;1.05;;;;;;;20.41;71.44;101184.59;19446191;30;20061;-63
2023/09/16 03:35:43;;;;;;;;;;;;;;;20.40;71.21;101172.06;19431535;30;20144;-63
2023/09/16 03:45:45;;;;;;;0.93;0.90;;;;;;;20.37;71.05;101166.97;19441670;30;19931;-63
2023/09/16 03:55:47;;;;;;;1.55;0.98;;;;;;;20.37;70.97;101163.38;19426108;30;20060;-63
2023/09/16 04:05:54;;;;;;;1.08;0.98;;;;;;;20.37;70.97;101168.78;19448890;30;20267;-63
2023/09/16 04:15:56;;;;;;;1.45;0.90;;;;;;;20.39;71.06;101161.38;19430687;30;20069;-62
2023/09/16 04:26:00;;;;;;;1.17;1.05;;;;;;;20.40;71.20;101158.56;19441256;30;20057;-63
2023/09/16 04:36:04;;;;;;;3.15;1.10;;;;;;;20.40;70.99;101153.16;19452148;30;20057;-63
2023/09/16 04:46:06;;;;;;;1.37;1.20;;;;;;;20.39;70.88;101164.09;19441847;30;20581;-63
2023/09/16 04:56:17;;;;;;;1.20;0.90;;;;;;;20.34;70.94;101156.44;19441322;30;20065;-63
2023/09/16 05:06:19;;;;;;;1.23;1.13;;;;;;;20.35;70.95;101157.28;19441392;30;20061;-63
2023/09/16 05:16:22;;;;;;;1.10;1.00;;;;;;;20.32;71.00;101161.09;19444879;30;20065;-62
2023/09/16 05:26:25;;;;;;;1.40;1.10;;;;;;;20.29;70.88;101154.16;19452697;30;20062;-63
2023/09/16 05:36:27;;;;;;;2.13;1.20;;;;;;;20.31;71.05;101158.56;19451937;30;20058;-62
2023/09/16 05:46:29;;;;;;;0.93;0.93;;;;;;;20.27;71.00;101150.75;19451745;30;20057;-62
2023/09/16 05:56:32;;;;;;;0.75;0.73;;;;;;;20.25;70.94;101152.75;19451070;30;20060;-63
2023/09/16 06:06:37;;;;;;;1.15;0.88;;;;;;;20.24;70.89;101161.00;19450249;30;20057;-62
2023/09/16 06:16:39;;;;;;;1.42;0.90;;;;;;;20.24;71.01;101158.28;19448743;30;20140;-63
2023/09/16 06:26:41;;;;;;;0.80;0.80;;;;;;;20.25;71.28;101170.81;19449187;30;20065;-62
2023/09/16 06:36:43;;;;;;;1.05;0.80;;;;;;;20.24;71.45;101172.66;19449166;30;20061;-62
2023/09/16 06:46:45;;;;;;;1.05;0.90;;;;;;;20.28;71.65;101184.03;19446805;30;20060;-62
2023/09/16 06:56:47;;;;;;;1.40;1.17;;;;;;;20.35;71.89;101179.78;19448906;30;20604;-62
2023/09/16 07:06:48;;;;;;;1.33;1.23;;;;;;;20.42;72.23;101180.03;19446974;30;20122;-63
2023/09/16 07:16:51;;;;;;;1.48;1.38;;;;;;;20.52;72.46;101186.25;19445432;30;20065;-62
2023/09/16 07:26:53;;;;;;;1.42;1.33;;;;;;;20.59;72.83;101173.00;19446488;30;20053;-63
2023/09/16 07:36:56;;;;;;;1.40;1.30;;;;;;;20.64;73.19;101168.00;19438813;30;20153;-63
2023/09/16 07:46:58;;;;;;;2.05;1.75;;;;;;;20.51;73.59;101148.53;19426290;30;20072;-63
2023/09/16 07:56:59;;;;;;;2.55;1.65;;;;;;;20.67;74.53;101174.97;19430838;30;20407;-62
2023/09/16 08:07:01;;;;;;;3.83;1.80;;;;;;;20.72;75.42;101184.34;19437754;30;20057;-62
2023/09/16 08:17:03;;;;;;;2.38;1.95;;;;;;;20.79;76.30;101195.44;19442525;30;20092;-63
2023/09/16 08:27:05;;;;;;;3.03;1.95;;;;;;;20.89;76.66;101200.84;19443466;30;20062;-63
2023/09/16 08:37:07;;;;;;;2.00;1.70;;;;;;;20.94;76.85;101189.53;19443216;30;20491;-63
2023/09/16 08:47:15;;;;;;;3.88;2.22;;;;;;;21.11;77.05;101185.19;19443689;30;20430;-63
2023/09/16 08:57:17;;;;;;;2.28;1.80;;;;;;;21.20;77.22;101195.09;19456106;30;20516;-63
2023/09/16 09:07:20;;;;;;;2.00;1.80;;;;;;;21.28;77.27;101211.47;19453764;30;20057;-63
2023/09/16 09:17:22;;;;;;;2.47;2.15;;;;;;;21.33;77.27;101216.41;19453094;30;20101;-63
2023/09/16 09:27:24;;;;;;;2.55;2.10;;;;;;;21.33;77.27;101215.56;19452580;30;20061;-63
2023/09/16 09:37:26;;;;;;;2.30;2.10;;;;;;;21.35;77.36;101209.00;19466992;30;20632;-63
2023/09/16 09:47:28;;;;;;;2.33;2.00;;;;;;;21.39;77.41;101210.38;19453661;30;20092;-63
2023/09/16 09:57:30;;;;;;;2.22;1.92;;;;;;;21.43;77.63;101205.53;19451770;30;20065;-63
2023/09/16 10:07:32;;;;;;;2.63;2.25;;;;;;;21.41;77.70;101181.28;19464134;30;20155;-63
2023/09/16 10:17:34;;;;;;;2.60;2.13;;;;;;;21.51;78.16;101193.94;19450455;30;20053;-63
2023/09/16 10:27:42;;;;;;;2.55;2.03;;;;;;;21.55;78.38;101192.63;19449668;30;20137;-63
2023/09/16 10:37:44;;;;;;;2.72;2.17;;;;;;;21.58;78.61;101195.03;19449800;30;20062;-63
2023/09/16 10:47:46;;;;;;;2.10;1.90;;;;;;;21.56;78.69;101168.06;19449084;30;20511;-63
2023/09/16 10:58:16;;;;;;;2.08;1.88;;;;;;;21.67;78.92;101179.75;19447591;30;20405;-63
2023/09/16 11:08:18;;;;;;;2.95;2.33;;;;;;;21.68;78.86;101178.75;19445786;30;20045;-63
2023/09/16 11:18:20;;;;;;;2.08;1.92;;;;;;;21.70;78.99;101168.59;19445270;30;20136;-63
2023/09/16 11:28:22;;;;;;;1.85;1.75;;;;;;;21.66;78.77;101157.19;19445546;30;20092;-63
2023/09/16 11:38:24;;;;;;;2.20;1.98;;;;;;;21.73;79.01;101161.00;19445610;30;20100;-63
2023/09/16 11:48:27;;;;;;;2.00;1.80;;;;;;;21.74;78.96;101156.44;19444740;30;20064;-63
2023/09/16 11:58:47;;;;;;;1.90;1.80;;;;;;;21.73;79.04;101152.84;19444773;30;20057;-63
2023/09/16 12:08:49;;;;;;;2.33;1.90;;;;;;;21.79;79.06;101148.69;19444233;30;20578;-63
2023/09/16 12:18:52;;;;;;;1.77;1.67;;;;;;;21.81;78.81;101148.50;19443182;30;20058;-63
2023/09/16 12:28:54;;;;;;;1.80;1.70;;;;;;;21.80;78.43;101146.81;19454258;30;20136;-63
2023/09/16 12:38:58;;;;;;;2.25;1.75;;;;;;;21.80;77.86;101135.97;19457559;30;20076;-63
2023/09/16 12:49:00;;;;;;;2.00;1.80;;;;;;;21.78;77.68;101125.31;19456508;30;20066;-63
2023/09/16 12:59:03;;;;;;;2.20;1.60;;;;;;;21.78;77.19;101117.19;19456512;30;20073;-63
2023/09/16 13:09:06;;;;;;;2.53;1.67;;;;;;;21.78;77.05;101119.88;19455332;30;20416;-63
2023/09/16 13:19:15;;;;;;;1.98;1.70;;;;;;;21.77;76.63;101117.31;19453388;30;20069;-63
2023/09/16 13:29:17;;;;;;;1.95;1.75;;;;;;;21.75;76.93;101114.78;19454717;30;20065;-63
2023/09/16 13:39:18;;;;;;;2.45;1.60;;;;;;;21.71;76.46;101116.94;19452789;30;20074;-63
2023/09/16 13:49:20;;;;;;;2.10;1.90;;;;;;;21.69;76.64;101116.25;19452539;30;20144;-63
2023/09/16 13:59:22;;;;;;;2.15;1.90;;;;;;;21.68;76.18;101116.41;19452887;30;20796;-63
2023/09/16 14:09:24;;;;;;;1.77;1.52;;;;;;;21.65;76.31;101122.13;19428450;30;20050;-63
2023/09/16 14:19:26;;;;;;;2.78;1.67;;;;;;;21.64;76.14;101121.28;19434502;30;20069;-63
2023/09/16 14:29:28;;;;;;;2.15;1.63;;;;;;;21.63;75.84;101118.69;19449179;30;20408;-62
2023/09/16 14:39:29;;;;;;;2.58;1.90;;;;;;;21.65;75.87;101116.72;19443106;30;20092;-62
2023/09/16 14:49:31;;;;;;;2.45;2.00;;;;;;;21.59;75.66;101113.59;19422323;30;20096;-61
2023/09/16 14:59:33;;;;;;;3.53;1.77;;;;;;;21.36;77.74;101117.78;19412349;30;20057;-60
2023/09/16 15:09:35;;;;;;;3.08;2.00;;;;;;;21.23;80.51;101124.44;19430863;30;20116;-63
2023/09/16 15:19:44;;;;;;;2.60;2.15;;;;;;;21.17;82.11;101119.59;20939751;28;21004;-63
2023/09/16 15:29:46;;;;;;;2.30;2.10;;;;;;;21.24;84.68;101125.28;20916004;28;20045;-63
2023/09/16 15:39:48;;;;;;;2.42;2.20;;;;;;;21.36;86.59;101129.44;20907357;28;20053;-63
2023/09/16 15:49:50;;;;;;;2.15;1.95;;;;;;;21.47;87.35;101141.91;20882576;28;20045;-64
2023/09/16 15:59:52;;;;;;;2.42;1.80;;;;;;;21.50;87.53;101141.59;20906402;28;20059;-65
2023/09/16 16:09:54;;;;;;;2.75;2.00;;;;;;;21.51;88.23;101140.59;20853968;28;20056;-62
2023/09/16 16:19:56;;;;;;;2.17;1.83;;;;;;;21.52;88.38;101150.44;20888399;28;20571;-62
2023/09/16 16:29:57;;;;;;;2.40;2.08;;;;;;;21.51;88.52;101151.44;20815819;28;20080;-62
2023/09/16 16:39:59;;;;;;;2.88;2.08;;;;;;;21.49;88.25;101152.63;20802772;28;20060;-62
2023/09/16 16:50:03;;;;;;;2.80;2.22;;;;;;;21.46;88.08;101150.22;20812364;28;20057;-62
2023/09/16 17:00:07;;;;;;;2.08;1.90;;;;;;;21.42;87.37;101171.31;20810539;28;20513;-62
2023/09/16 17:10:09;;;;;;;3.63;1.97;;;;;;;21.40;87.20;101174.19;20813972;28;20052;-61
2023/09/16 17:20:13;;;;;;;2.28;2.08;;;;;;;21.39;87.09;101180.59;20796591;28;20061;-61
2023/09/16 17:30:15;;;;;;;2.03;1.83;;;;;;;21.38;87.44;101186.19;20809048;28;20104;-61
2023/09/16 17:40:17;;;;;;;2.38;2.00;;;;;;;21.38;87.35;101199.72;20810471;28;20100;-61
2023/09/16 17:50:19;;;;;;;2.85;2.35;;;;;;;21.37;86.89;101208.84;20806391;28;20046;-62
2023/09/16 18:00:21;;;;;;;3.00;2.60;;;;;;;21.34;86.56;101218.13;20812584;28;20456;-62
2023/09/16 18:10:22;;;;;;;3.20;2.47;;;;;;;21.34;86.14;101230.81;20810897;28;20057;-63
2023/09/16 18:20:25;;;;;;;3.22;2.67;;;;;;;21.31;85.68;101240.09;20814031;28;20425;-63
2023/09/16 18:30:27;;;;;;;4.25;3.15;;;;;;;21.29;85.20;101242.97;20816246;28;20132;-63
2023/09/16 18:40:29;;;;;;;3.05;2.60;;;;;;;21.27;84.93;101247.69;20823120;28;20120;-63
2023/09/16 18:50:31;;;;;;;3.45;2.97;;;;;;;21.25;84.52;101255.09;20822605;28;20057;-63
2023/09/16 19:00:33;;;;;;;4.85;3.10;;;;;;;21.22;84.28;101266.22;20822764;28;20053;-63
2023/09/16 19:10:35;;;;;;;3.88;3.47;;;;;;;21.19;84.15;101279.19;20821946;28;20050;-63
2023/09/16 19:20:37;;;;;;;4.95;3.92;;;;;;;21.14;85.89;101277.81;20821305;28;20065;-63
2023/09/16 19:30:39;;;;;;;4.10;3.70;;;;;;;21.13;85.75;101280.63;20821481;28;20046;-63
2023/09/16 19:40:45;;;;;;;4.90;3.70;;;;;;;21.10;86.21;101280.94;20820765;28;20061;-63
2023/09/16 19:50:49;;;;;;;4.40;4.00;;;;;;;21.09;86.74;101276.53;20820410;28;20056;-63
2023/09/16 20:01:01;;;;;;;4.80;4.10;;;;;;;21.09;86.98;101263.00;20826824;28;20414;-63
2023/09/16 20:11:03;;;;;;;5.00;4.47;;;;;;;21.08;86.53;101275.69;20835178;28;20049;-63
2023/09/16 20:21:05;;;;;;;5.65;5.00;;;;;;;21.01;85.31;101275.41;20833843;28;20054;-63
2023/09/16 20:31:06;;;;;;;5.47;4.68;;;;;;;20.98;84.97;101274.84;20828510;28;20409;-63
2023/09/16 20:41:08;;;;;;;5.82;5.00;;;;;;;20.94;84.58;101262.63;20817461;28;20042;-63
2023/09/16 20:51:10;;;;;;;5.15;4.65;;;;;;;20.92;84.47;101268.19;20815709;28;20390;-63
2023/09/16 21:01:12;;;;;;;5.80;4.60;;;;;;;20.90;84.03;101263.91;20811246;28;20056;-63
2023/09/16 21:11:14;;;;;;;5.80;5.20;;;;;;;20.88;83.85;101268.63;20818960;28;20066;-63
2023/09/16 21:21:16;;;;;;;5.43;4.65;;;;;;;20.86;83.61;101274.19;20831528;28;20060;-63
2023/09/16 21:31:18;;;;;;;4.68;4.25;;;;;;;20.85;83.35;101261.66;20819158;28;20144;-63
2023/09/16 21:41:20;;;;;;;5.45;4.95;;;;;;;20.82;82.96;101261.97;20820027;28;20081;-63
2023/09/16 21:51:22;;;;;;;5.15;4.65;;;;;;;20.81;82.88;101266.50;20808920;28;20057;-63
2023/09/16 22:01:25;;;;;;;6.00;4.60;;;;;;;20.60;82.67;101215.28;20811861;28;20412;-63
2023/09/16 22:11:27;;;;;;;4.47;4.05;;;;;;;20.72;82.65;101245.72;20811141;28;20038;-63
2023/09/16 22:21:29;;;;;;;3.53;3.00;;;;;;;20.79;83.14;101262.25;20816888;28;20060;-63
2023/09/16 22:31:30;;;;;;;3.75;3.40;;;;;;;20.81;82.98;101266.50;20819456;28;20046;-63
2023/09/16 22:41:35;;;;;;;3.85;3.45;;;;;;;20.82;82.83;101268.22;20817409;28;20081;-63
2023/09/16 22:51:37;;;;;;;4.10;3.15;;;;;;;20.81;82.89;101281.91;20817848;28;20107;-63
2023/09/16 23:01:38;;;;;;;3.80;3.38;;;;;;;20.79;82.77;101273.91;20820752;28;20060;-63
2023/09/16 23:11:40;;;;;;;3.50;3.20;;;;;;;20.78;82.65;101260.53;20816397;28;20050;-63
2023/09/16 23:21:42;;;;;;;3.40;3.10;;;;;;;20.76;82.60;101257.09;20825949;28;20061;-63
2023/09/16 23:31:44;;;;;;;3.75;3.45;;;;;;;20.73;82.60;101242.00;20820494;28;20054;-63
2023/09/16 23:41:46;;;;;;;3.67;3.30;;;;;;;20.72;82.58;101243.84;20819780;28;20041;-63
2023/09/16 23:51:48;;;;;;;4.20;3.40;;;;;;;20.71;82.50;101231.31;20833423;28;20053;-63
